Terminal Aerodrome Forecast
Issued by NWS

Home | Current Version | Previous Version | Text Only | Print | Product List | Glossary On
Versions: 1 2 3 4 5 6 7 8 9 10 11 12 13 14 15 16
000
FTUS45 KREV 190340 AAB
TAFTRK
TAF AMD
KTRK 190340Z 1904/1924 23018G26KT 6SM -RA BKN015 OVC030
      WS020/24040KT
     FM190500 21016G28KT 5SM RA SCT015 OVC025
     FM190700 22010G20KT 1SM -SN OVC010=

USA.gov is the U.S. government's official web portal to all federal, state and local government web resources and services.